RYR3LM EPSC-EPKK
Flight info
| Callsign | RYR3LM |
|---|---|
| Flight time | 0h 56m |
| Altitude | 33000 |
| Route | APNE1F APNEZ DCT DENKO L619 ADVAB L623 UWLER UWLE2G |
| Aircraft | B38M/M-SDE1FGHILORVWXY/HB1 |
Departure
| Time | 2026-04-22 10:58 |
|---|---|
| Airport | Solidarity Szczecin–Goleniów Airport (EPSC) |
Arrival
| Time | 2026-04-22 11:54 |
|---|---|
| Airport | Kraków John Paul II International Airport (EPKK) |
| Time | Latitude | Longitude | Altitude | Speed | Heading |
|---|---|---|---|---|---|
| 2026-04-22 10:41 | 53.59252 | 14.89581 | 138 ft | 0 kts | 313° |
| 2026-04-22 10:46 | 53.59252 | 14.89582 | 138 ft | 0 kts | 313° |
| 2026-04-22 10:46 | 53.59251 | 14.89582 | 138 ft | 0 kts | 313° |
| 2026-04-22 10:52 | 53.59253 | 14.89578 | 138 ft | 2 kts | 306° |
| 2026-04-22 10:52 | 53.59241 | 14.89557 | 138 ft | 5 kts | 190° |
| 2026-04-22 10:53 | 53.59168 | 14.89534 | 138 ft | 11 kts | 191° |
| 2026-04-22 10:53 | 53.59107 | 14.89466 | 138 ft | 7 kts | 219° |
| 2026-04-22 10:53 | 53.59071 | 14.89489 | 138 ft | 7 kts | 130° |
| 2026-04-22 10:53 | 53.59025 | 14.89579 | 138 ft | 14 kts | 131° |
| 2026-04-22 10:54 | 53.58932 | 14.89758 | 138 ft | 26 kts | 131° |
| 2026-04-22 10:54 | 53.58824 | 14.89965 | 138 ft | 23 kts | 131° |
| 2026-04-22 10:54 | 53.58726 | 14.90157 | 138 ft | 22 kts | 130° |
| 2026-04-22 10:54 | 53.58623 | 14.90356 | 138 ft | 22 kts | 131° |
| 2026-04-22 10:55 | 53.58516 | 14.90562 | 138 ft | 25 kts | 131° |
| 2026-04-22 10:55 | 53.58406 | 14.90773 | 138 ft | 23 kts | 130° |
| 2026-04-22 10:55 | 53.58297 | 14.90987 | 138 ft | 25 kts | 130° |
| 2026-04-22 10:55 | 53.58190 | 14.91196 | 138 ft | 23 kts | 131° |
| 2026-04-22 10:56 | 53.58079 | 14.91412 | 138 ft | 26 kts | 131° |
| 2026-04-22 10:56 | 53.57972 | 14.91620 | 138 ft | 22 kts | 130° |
| 2026-04-22 10:56 | 53.57893 | 14.91777 | 138 ft | 11 kts | 131° |
| 2026-04-22 10:56 | 53.57843 | 14.91770 | 138 ft | 6 kts | 221° |
| 2026-04-22 10:57 | 53.57810 | 14.91721 | 139 ft | 6 kts | 221° |
| 2026-04-22 10:57 | 53.57778 | 14.91673 | 141 ft | 6 kts | 221° |
| 2026-04-22 10:57 | 53.57758 | 14.91621 | 142 ft | 5 kts | 270° |
| 2026-04-22 10:57 | 53.57777 | 14.91574 | 142 ft | 6 kts | 311° |
| 2026-04-22 10:58 | 53.57886 | 14.91364 | 144 ft | 59 kts | 310° |
| 2026-04-22 10:58 | 53.58332 | 14.90499 | 143 ft | 133 kts | 310° |
| 2026-04-22 10:58 | 53.59017 | 14.89180 | 597 ft | 155 kts | 311° |
| 2026-04-22 10:58 | 53.59741 | 14.87774 | 1527 ft | 162 kts | 312° |
| 2026-04-22 10:59 | 53.60486 | 14.86309 | 2420 ft | 173 kts | 313° |
| 2026-04-22 10:59 | 53.61309 | 14.84698 | 3144 ft | 191 kts | 313° |
| 2026-04-22 10:59 | 53.62234 | 14.82907 | 3789 ft | 211 kts | 313° |
| 2026-04-22 10:59 | 53.63160 | 14.80874 | 4605 ft | 227 kts | 301° |
| 2026-04-22 11:00 | 53.63608 | 14.78222 | 5359 ft | 250 kts | 275° |
| 2026-04-22 11:00 | 53.63187 | 14.75265 | 6090 ft | 273 kts | 243° |
| 2026-04-22 11:00 | 53.61922 | 14.72848 | 7119 ft | 281 kts | 222° |
| 2026-04-22 11:00 | 53.60216 | 14.71109 | 7895 ft | 295 kts | 200° |
| 2026-04-22 11:01 | 53.58180 | 14.70646 | 8820 ft | 300 kts | 174° |
| 2026-04-22 11:01 | 53.56164 | 14.71568 | 9683 ft | 302 kts | 149° |
| 2026-04-22 11:01 | 53.54525 | 14.73709 | 10563 ft | 301 kts | 128° |
| 2026-04-22 11:01 | 53.53121 | 14.76444 | 11100 ft | 317 kts | 127° |
| 2026-04-22 11:02 | 53.51646 | 14.79296 | 11737 ft | 329 kts | 127° |
| 2026-04-22 11:02 | 53.50131 | 14.82195 | 12645 ft | 331 kts | 127° |
| 2026-04-22 11:02 | 53.48600 | 14.85111 | 13520 ft | 335 kts | 127° |
| 2026-04-22 11:02 | 53.47049 | 14.88059 | 14372 ft | 338 kts | 127° |
| 2026-04-22 11:03 | 53.45483 | 14.91030 | 15188 ft | 341 kts | 127° |
| 2026-04-22 11:03 | 53.43911 | 14.94026 | 16008 ft | 343 kts | 127° |
| 2026-04-22 11:03 | 53.42280 | 14.96970 | 16803 ft | 349 kts | 135° |
| 2026-04-22 11:03 | 53.40388 | 14.99558 | 17607 ft | 352 kts | 136° |
| 2026-04-22 11:04 | 53.38507 | 15.02205 | 18363 ft | 355 kts | 135° |
| 2026-04-22 11:04 | 53.36622 | 15.04894 | 19041 ft | 357 kts | 135° |
| 2026-04-22 11:04 | 53.34731 | 15.07613 | 19691 ft | 360 kts | 135° |
| 2026-04-22 11:04 | 53.32829 | 15.10359 | 20322 ft | 362 kts | 135° |
| 2026-04-22 11:05 | 53.30918 | 15.13121 | 20938 ft | 365 kts | 135° |
| 2026-04-22 11:05 | 53.28992 | 15.15906 | 21550 ft | 367 kts | 135° |
| 2026-04-22 11:05 | 53.27052 | 15.18707 | 22177 ft | 370 kts | 135° |
| 2026-04-22 11:05 | 53.25098 | 15.21525 | 22780 ft | 372 kts | 135° |
| 2026-04-22 11:06 | 53.23129 | 15.24361 | 23396 ft | 375 kts | 135° |
| 2026-04-22 11:06 | 53.21145 | 15.27215 | 23958 ft | 378 kts | 135° |
| 2026-04-22 11:06 | 53.19148 | 15.30085 | 24486 ft | 380 kts | 135° |
| 2026-04-22 11:06 | 53.17139 | 15.32969 | 25012 ft | 382 kts | 135° |
| 2026-04-22 11:07 | 53.15118 | 15.35865 | 25523 ft | 384 kts | 135° |
| 2026-04-22 11:07 | 53.13087 | 15.38773 | 26025 ft | 386 kts | 135° |
| 2026-04-22 11:07 | 53.11046 | 15.41692 | 26540 ft | 388 kts | 135° |
| 2026-04-22 11:07 | 53.08988 | 15.44630 | 27052 ft | 391 kts | 134° |
| 2026-04-22 11:08 | 53.06923 | 15.47575 | 27564 ft | 392 kts | 134° |
| 2026-04-22 11:08 | 53.04848 | 15.50529 | 28039 ft | 394 kts | 134° |
| 2026-04-22 11:08 | 53.02760 | 15.53498 | 28495 ft | 396 kts | 134° |
| 2026-04-22 11:08 | 53.00662 | 15.56478 | 28957 ft | 398 kts | 134° |
| 2026-04-22 11:09 | 52.98547 | 15.59478 | 29403 ft | 401 kts | 134° |
| 2026-04-22 11:09 | 52.96422 | 15.62488 | 29840 ft | 403 kts | 134° |
| 2026-04-22 11:09 | 52.94310 | 15.65476 | 30253 ft | 405 kts | 134° |
| 2026-04-22 11:09 | 52.92160 | 15.68512 | 30624 ft | 407 kts | 134° |
| 2026-04-22 11:10 | 52.90002 | 15.71557 | 31050 ft | 407 kts | 134° |
| 2026-04-22 11:10 | 52.87845 | 15.74596 | 31450 ft | 408 kts | 134° |
| 2026-04-22 11:10 | 52.85683 | 15.77637 | 31852 ft | 408 kts | 135° |
| 2026-04-22 11:10 | 52.83518 | 15.80680 | 32256 ft | 408 kts | 135° |
| 2026-04-22 11:11 | 52.81331 | 15.83684 | 32682 ft | 410 kts | 136° |
| 2026-04-22 11:11 | 52.79104 | 15.86629 | 33078 ft | 410 kts | 136° |
| 2026-04-22 11:11 | 52.76874 | 15.89590 | 33263 ft | 413 kts | 136° |
| 2026-04-22 11:12 | 52.72427 | 15.95493 | 33249 ft | 409 kts | 136° |
| 2026-04-22 11:12 | 52.67992 | 16.01368 | 33243 ft | 409 kts | 136° |
| 2026-04-22 11:13 | 52.63555 | 16.07230 | 33254 ft | 409 kts | 136° |
| 2026-04-22 11:13 | 52.59105 | 16.13094 | 33244 ft | 410 kts | 136° |
| 2026-04-22 11:14 | 52.54654 | 16.18943 | 33253 ft | 410 kts | 136° |
| 2026-04-22 11:14 | 52.50195 | 16.24769 | 33238 ft | 409 kts | 136° |
| 2026-04-22 11:15 | 52.45736 | 16.30583 | 33239 ft | 409 kts | 136° |
| 2026-04-22 11:15 | 52.41277 | 16.36381 | 33238 ft | 409 kts | 136° |
| 2026-04-22 11:16 | 52.36816 | 16.42166 | 33237 ft | 409 kts | 136° |
| 2026-04-22 11:16 | 52.32351 | 16.47940 | 33236 ft | 409 kts | 136° |
| 2026-04-22 11:17 | 52.27882 | 16.53706 | 33261 ft | 409 kts | 136° |
| 2026-04-22 11:17 | 52.23416 | 16.59451 | 33240 ft | 409 kts | 136° |
| 2026-04-22 11:18 | 52.18947 | 16.65185 | 33240 ft | 409 kts | 136° |
| 2026-04-22 11:18 | 52.14478 | 16.70907 | 33237 ft | 408 kts | 136° |
| 2026-04-22 11:19 | 52.10416 | 16.77217 | 33241 ft | 403 kts | 128° |
| 2026-04-22 11:19 | 52.06520 | 16.83771 | 33236 ft | 403 kts | 128° |
| 2026-04-22 11:20 | 52.02652 | 16.90283 | 33271 ft | 403 kts | 128° |
| 2026-04-22 11:20 | 51.98743 | 16.96847 | 33242 ft | 405 kts | 128° |
| 2026-04-22 11:21 | 51.94830 | 17.03401 | 33231 ft | 405 kts | 128° |
| 2026-04-22 11:21 | 51.90911 | 17.09948 | 33237 ft | 404 kts | 128° |
| 2026-04-22 11:22 | 51.86991 | 17.16479 | 33234 ft | 404 kts | 128° |
| 2026-04-22 11:22 | 51.83072 | 17.23004 | 33233 ft | 404 kts | 128° |
| 2026-04-22 11:23 | 51.79175 | 17.29554 | 33238 ft | 404 kts | 128° |
| 2026-04-22 11:23 | 51.75277 | 17.36081 | 33231 ft | 404 kts | 128° |
| 2026-04-22 11:24 | 51.71356 | 17.42572 | 33230 ft | 404 kts | 129° |
| 2026-04-22 11:24 | 51.67408 | 17.49050 | 33227 ft | 406 kts | 129° |
| 2026-04-22 11:25 | 51.63452 | 17.55529 | 33233 ft | 406 kts | 129° |
| 2026-04-22 11:25 | 51.59491 | 17.61998 | 33228 ft | 406 kts | 129° |
| 2026-04-22 11:26 | 51.55527 | 17.68456 | 33225 ft | 405 kts | 129° |
| 2026-04-22 11:26 | 51.51564 | 17.74895 | 33226 ft | 405 kts | 129° |
| 2026-04-22 11:27 | 51.47597 | 17.81324 | 33220 ft | 405 kts | 129° |
| 2026-04-22 11:27 | 51.43626 | 17.87741 | 33214 ft | 405 kts | 129° |
| 2026-04-22 11:28 | 51.39982 | 17.94375 | 33237 ft | 385 kts | 124° |
| 2026-04-22 11:28 | 51.36523 | 18.00833 | 33216 ft | 387 kts | 125° |
| 2026-04-22 11:28 | 51.34740 | 18.04129 | 32786 ft | 385 kts | 125° |
| 2026-04-22 11:29 | 51.33016 | 18.07309 | 32285 ft | 382 kts | 125° |
| 2026-04-22 11:29 | 51.31255 | 18.10549 | 31787 ft | 380 kts | 124° |
| 2026-04-22 11:29 | 51.29549 | 18.13686 | 31313 ft | 378 kts | 124° |
| 2026-04-22 11:29 | 51.27827 | 18.16848 | 30836 ft | 376 kts | 124° |
| 2026-04-22 11:30 | 51.26113 | 18.19989 | 30367 ft | 374 kts | 124° |
| 2026-04-22 11:30 | 51.24409 | 18.23109 | 29826 ft | 372 kts | 124° |
| 2026-04-22 11:30 | 51.22712 | 18.26212 | 29278 ft | 370 kts | 124° |
| 2026-04-22 11:30 | 51.21023 | 18.29296 | 28736 ft | 368 kts | 124° |
| 2026-04-22 11:31 | 51.19340 | 18.32368 | 28215 ft | 367 kts | 124° |
| 2026-04-22 11:31 | 51.17664 | 18.35421 | 27705 ft | 365 kts | 124° |
| 2026-04-22 11:31 | 51.16535 | 18.37478 | 27356 ft | 365 kts | 124° |
| 2026-04-22 11:31 | 51.14327 | 18.41492 | 26698 ft | 363 kts | 124° |
| 2026-04-22 11:32 | 51.13225 | 18.43492 | 26361 ft | 362 kts | 125° |
| 2026-04-22 11:32 | 51.11565 | 18.46506 | 25861 ft | 362 kts | 125° |
| 2026-04-22 11:32 | 51.09907 | 18.49510 | 25384 ft | 361 kts | 125° |
| 2026-04-22 11:32 | 51.08252 | 18.52505 | 24901 ft | 360 kts | 125° |
| 2026-04-22 11:33 | 51.06599 | 18.55495 | 24428 ft | 360 kts | 125° |
| 2026-04-22 11:33 | 51.04949 | 18.58473 | 24040 ft | 357 kts | 125° |
| 2026-04-22 11:33 | 51.03322 | 18.61408 | 23783 ft | 351 kts | 125° |
| 2026-04-22 11:33 | 51.01719 | 18.64297 | 23395 ft | 347 kts | 126° |
| 2026-04-22 11:34 | 51.00127 | 18.67161 | 23007 ft | 344 kts | 126° |
| 2026-04-22 11:34 | 50.98550 | 18.69995 | 22649 ft | 340 kts | 126° |
| 2026-04-22 11:34 | 50.96992 | 18.72793 | 22292 ft | 337 kts | 126° |
| 2026-04-22 11:34 | 50.95449 | 18.75561 | 21949 ft | 333 kts | 126° |
| 2026-04-22 11:35 | 50.93922 | 18.78297 | 21603 ft | 330 kts | 126° |
| 2026-04-22 11:35 | 50.92409 | 18.81006 | 21253 ft | 327 kts | 126° |
| 2026-04-22 11:35 | 50.90908 | 18.83689 | 20917 ft | 324 kts | 126° |
| 2026-04-22 11:35 | 50.89421 | 18.86346 | 20584 ft | 321 kts | 126° |
| 2026-04-22 11:36 | 50.87945 | 18.88979 | 20255 ft | 318 kts | 126° |
| 2026-04-22 11:36 | 50.86481 | 18.91587 | 19920 ft | 316 kts | 126° |
| 2026-04-22 11:36 | 50.85028 | 18.94174 | 19594 ft | 313 kts | 126° |
| 2026-04-22 11:36 | 50.83586 | 18.96740 | 19278 ft | 311 kts | 126° |
| 2026-04-22 11:37 | 50.82150 | 18.99291 | 18956 ft | 309 kts | 126° |
| 2026-04-22 11:37 | 50.80725 | 19.01820 | 18638 ft | 307 kts | 126° |
| 2026-04-22 11:37 | 50.79307 | 19.04335 | 18288 ft | 305 kts | 126° |
| 2026-04-22 11:37 | 50.77898 | 19.06831 | 17956 ft | 303 kts | 127° |
| 2026-04-22 11:38 | 50.76498 | 19.09309 | 17613 ft | 301 kts | 127° |
| 2026-04-22 11:38 | 50.75109 | 19.11766 | 17295 ft | 300 kts | 127° |
| 2026-04-22 11:38 | 50.72283 | 19.16756 | 16649 ft | 309 kts | 127° |
| 2026-04-22 11:39 | 50.70849 | 19.19284 | 16331 ft | 309 kts | 127° |
| 2026-04-22 11:39 | 50.69415 | 19.21810 | 16000 ft | 309 kts | 127° |
| 2026-04-22 11:39 | 50.67983 | 19.24329 | 15677 ft | 309 kts | 127° |
| 2026-04-22 11:39 | 50.66549 | 19.26849 | 15344 ft | 309 kts | 128° |
| 2026-04-22 11:40 | 50.65115 | 19.29367 | 15030 ft | 309 kts | 128° |
| 2026-04-22 11:40 | 50.63681 | 19.31883 | 14707 ft | 308 kts | 128° |
| 2026-04-22 11:40 | 50.62249 | 19.34393 | 14384 ft | 307 kts | 128° |
| 2026-04-22 11:40 | 50.60826 | 19.36884 | 14059 ft | 305 kts | 128° |
| 2026-04-22 11:41 | 50.59409 | 19.39362 | 13707 ft | 304 kts | 128° |
| 2026-04-22 11:41 | 50.58018 | 19.41795 | 13362 ft | 302 kts | 128° |
| 2026-04-22 11:41 | 50.56619 | 19.44237 | 13047 ft | 300 kts | 129° |
| 2026-04-22 11:41 | 50.55228 | 19.46663 | 12717 ft | 298 kts | 129° |
| 2026-04-22 11:42 | 50.53848 | 19.49067 | 12402 ft | 295 kts | 128° |
| 2026-04-22 11:42 | 50.52474 | 19.51459 | 12086 ft | 294 kts | 129° |
| 2026-04-22 11:42 | 50.51109 | 19.53834 | 11753 ft | 293 kts | 129° |
| 2026-04-22 11:42 | 50.49748 | 19.56199 | 11438 ft | 291 kts | 129° |
| 2026-04-22 11:43 | 50.48392 | 19.58553 | 11087 ft | 291 kts | 129° |
| 2026-04-22 11:43 | 50.47039 | 19.60902 | 10770 ft | 289 kts | 129° |
| 2026-04-22 11:43 | 50.45693 | 19.63233 | 10464 ft | 287 kts | 129° |
| 2026-04-22 11:43 | 50.44353 | 19.65550 | 10163 ft | 286 kts | 129° |
| 2026-04-22 11:44 | 50.43026 | 19.67845 | 9927 ft | 281 kts | 129° |
| 2026-04-22 11:44 | 50.41719 | 19.70100 | 9645 ft | 278 kts | 129° |
| 2026-04-22 11:44 | 50.40422 | 19.72343 | 9323 ft | 277 kts | 129° |
| 2026-04-22 11:44 | 50.39131 | 19.74572 | 9011 ft | 275 kts | 130° |
| 2026-04-22 11:45 | 50.37850 | 19.76776 | 8761 ft | 272 kts | 129° |
| 2026-04-22 11:45 | 50.36578 | 19.78971 | 8460 ft | 272 kts | 130° |
| 2026-04-22 11:45 | 50.35308 | 19.81155 | 8160 ft | 271 kts | 130° |
| 2026-04-22 11:45 | 50.34041 | 19.83335 | 7863 ft | 270 kts | 129° |
| 2026-04-22 11:46 | 50.32776 | 19.85510 | 7551 ft | 270 kts | 130° |
| 2026-04-22 11:46 | 50.31511 | 19.87669 | 7272 ft | 269 kts | 129° |
| 2026-04-22 11:46 | 50.30254 | 19.89824 | 6999 ft | 268 kts | 129° |
| 2026-04-22 11:46 | 50.28997 | 19.91981 | 6692 ft | 268 kts | 130° |
| 2026-04-22 11:47 | 50.27746 | 19.94125 | 6381 ft | 267 kts | 130° |
| 2026-04-22 11:47 | 50.26497 | 19.96262 | 6082 ft | 265 kts | 131° |
| 2026-04-22 11:47 | 50.25254 | 19.98384 | 5793 ft | 264 kts | 130° |
| 2026-04-22 11:47 | 50.24022 | 20.00484 | 5595 ft | 260 kts | 131° |
| 2026-04-22 11:48 | 50.22819 | 20.02538 | 5451 ft | 252 kts | 131° |
| 2026-04-22 11:48 | 50.21654 | 20.04527 | 5342 ft | 244 kts | 131° |
| 2026-04-22 11:48 | 50.20360 | 20.06123 | 5181 ft | 241 kts | 158° |
| 2026-04-22 11:48 | 50.18744 | 20.06812 | 5019 ft | 235 kts | 168° |
| 2026-04-22 11:49 | 50.17203 | 20.07355 | 4983 ft | 225 kts | 168° |
| 2026-04-22 11:49 | 50.15695 | 20.07873 | 4788 ft | 221 kts | 169° |
| 2026-04-22 11:49 | 50.14190 | 20.08373 | 4507 ft | 222 kts | 171° |
| 2026-04-22 11:49 | 50.12699 | 20.08111 | 4134 ft | 217 kts | 213° |
| 2026-04-22 11:50 | 50.11757 | 20.06432 | 3946 ft | 201 kts | 253° |
| 2026-04-22 11:50 | 50.11407 | 20.04464 | 3972 ft | 180 kts | 262° |
| 2026-04-22 11:50 | 50.11129 | 20.02578 | 3719 ft | 177 kts | 260° |
| 2026-04-22 11:50 | 50.10863 | 20.00715 | 3483 ft | 175 kts | 262° |
| 2026-04-22 11:51 | 50.10607 | 19.98879 | 3261 ft | 172 kts | 259° |
| 2026-04-22 11:51 | 50.10354 | 19.97063 | 3054 ft | 172 kts | 263° |
| 2026-04-22 11:51 | 50.10103 | 19.95233 | 2802 ft | 173 kts | 261° |
| 2026-04-22 11:51 | 50.09849 | 19.93415 | 2568 ft | 171 kts | 261° |
| 2026-04-22 11:52 | 50.09597 | 19.91613 | 2324 ft | 170 kts | 262° |
| 2026-04-22 11:52 | 50.09350 | 19.89829 | 2103 ft | 165 kts | 260° |
| 2026-04-22 11:52 | 50.09116 | 19.88145 | 1913 ft | 154 kts | 259° |
| 2026-04-22 11:52 | 50.08894 | 19.86561 | 1661 ft | 147 kts | 262° |
| 2026-04-22 11:53 | 50.08683 | 19.85028 | 1482 ft | 143 kts | 262° |
| 2026-04-22 11:53 | 50.08476 | 19.83532 | 1275 ft | 140 kts | 262° |
| 2026-04-22 11:53 | 50.08269 | 19.82052 | 1085 ft | 140 kts | 261° |
| 2026-04-22 11:53 | 50.08060 | 19.80579 | 909 ft | 139 kts | 262° |
| 2026-04-22 11:54 | 50.07870 | 19.79164 | 803 ft | 121 kts | 258° |
| 2026-04-22 11:54 | 50.07720 | 19.78093 | 801 ft | 80 kts | 257° |
| 2026-04-22 11:54 | 50.07626 | 19.77416 | 802 ft | 59 kts | 258° |
| 2026-04-22 11:54 | 50.07553 | 19.76907 | 805 ft | 22 kts | 257° |
| 2026-04-22 11:55 | 50.07499 | 19.76840 | 804 ft | 10 kts | 168° |
| 2026-04-22 11:55 | 50.07400 | 19.76874 | 802 ft | 20 kts | 167° |
| 2026-04-22 11:55 | 50.07316 | 19.76913 | 802 ft | 9 kts | 136° |
| 2026-04-22 11:55 | 50.07316 | 19.77021 | 802 ft | 12 kts | 76° |
| 2026-04-22 11:56 | 50.07341 | 19.77194 | 802 ft | 20 kts | 78° |
| 2026-04-22 11:56 | 50.07372 | 19.77417 | 802 ft | 22 kts | 77° |
| 2026-04-22 11:56 | 50.07407 | 19.77666 | 802 ft | 25 kts | 77° |
| 2026-04-22 11:56 | 50.07442 | 19.77918 | 802 ft | 24 kts | 78° |
| 2026-04-22 11:57 | 50.07478 | 19.78182 | 802 ft | 26 kts | 78° |
| 2026-04-22 11:57 | 50.07513 | 19.78436 | 802 ft | 25 kts | 78° |
| 2026-04-22 11:57 | 50.07548 | 19.78689 | 802 ft | 22 kts | 77° |
| 2026-04-22 11:57 | 50.07581 | 19.78921 | 802 ft | 21 kts | 78° |
| 2026-04-22 11:58 | 50.07613 | 19.79155 | 802 ft | 21 kts | 78° |
| 2026-04-22 11:58 | 50.07646 | 19.79386 | 802 ft | 23 kts | 77° |
| 2026-04-22 11:58 | 50.07675 | 19.79598 | 802 ft | 19 kts | 78° |
| 2026-04-22 11:58 | 50.07700 | 19.79792 | 802 ft | 16 kts | 78° |
| 2026-04-22 11:59 | 50.07693 | 19.79872 | 802 ft | 6 kts | 154° |
| 2026-04-22 11:59 | 50.07625 | 19.79896 | 802 ft | 14 kts | 166° |
| 2026-04-22 11:59 | 50.07524 | 19.79930 | 802 ft | 15 kts | 168° |
| 2026-04-22 11:59 | 50.07437 | 19.79959 | 802 ft | 10 kts | 168° |
| 2026-04-22 12:00 | 50.07398 | 19.80014 | 802 ft | 8 kts | 109° |
| 2026-04-22 12:00 | 50.07365 | 19.80045 | 802 ft | 7 kts | 168° |
| 2026-04-22 12:00 | 50.07335 | 19.80055 | 802 ft | 0 kts | 168° |
| 2026-04-22 12:01 | 50.07336 | 19.80055 | 802 ft | 0 kts | 168° |
| 2026-04-22 12:13 | 50.07337 | 19.80055 | 802 ft | 0 kts | 168° |
| 2026-04-22 12:23 | 50.07338 | 19.80055 | 802 ft | 0 kts | 168° |
| 2026-04-22 12:32 | 50.07338 | 19.80054 | 802 ft | 0 kts | 168° |
| 2026-04-22 12:33 | 50.07339 | 19.80054 | 802 ft | 0 kts | 168° |
| 2026-04-22 12:43 | 50.07340 | 19.80054 | 802 ft | 0 kts | 168° |
| 2026-04-22 12:53 | 50.07341 | 19.80054 | 802 ft | 0 kts | 168° |
| 2026-04-22 13:02 | 50.07341 | 19.80053 | 802 ft | 0 kts | 168° |
| 2026-04-22 13:03 | 50.07342 | 19.80053 | 802 ft | 0 kts | 168° |
| 2026-04-22 13:14 | 50.07343 | 19.80053 | 802 ft | 0 kts | 168° |
| 2026-04-22 13:24 | 50.07335 | 19.80056 | 802 ft | 0 kts | 168° |
| 2026-04-22 13:30 | 50.07336 | 19.80056 | 802 ft | 0 kts | 168° |
| 2026-04-22 13:40 | 50.07336 | 19.80055 | 830 ft | 0 kts | 168° |
| 2026-04-22 13:41 | 50.07337 | 19.80055 | 830 ft | 0 kts | 168° |
| 2026-04-22 13:53 | 50.07338 | 19.80055 | 830 ft | 0 kts | 168° |
| 2026-04-22 14:04 | 50.07339 | 19.80055 | 802 ft | 0 kts | 168° |